createdAt,value
2022-08-11T00:02:28.338Z,26.36
2022-08-11T00:07:20.904Z,26.34
2022-08-11T00:12:17.055Z,26.47
2022-08-11T00:17:14.381Z,26.39
2022-08-11T00:22:08.343Z,26.36
2022-08-11T00:27:02.134Z,26.31
2022-08-11T00:31:56.778Z,26.28
2022-08-11T00:36:54.508Z,26.38
2022-08-11T00:42:08.190Z,26.46
2022-08-11T00:47:16.369Z,26.62
2022-08-11T00:52:14.077Z,26.57
2022-08-11T00:57:40.013Z,26.61
2022-08-11T01:03:06.868Z,26.57
2022-08-11T01:08:11.789Z,26.23
2022-08-11T01:13:33.274Z,26.06
2022-08-11T01:18:35.419Z,25.61
2022-08-11T01:23:45.898Z,25.77
2022-08-11T01:28:59.886Z,25.22
2022-08-11T01:34:13.688Z,25.53
2022-08-11T01:39:35.397Z,25.54
2022-08-11T01:44:47.861Z,25.56
2022-08-11T01:50:07.290Z,25.65
2022-08-11T01:55:27.432Z,25.57
2022-08-11T02:00:22.892Z,25.46
2022-08-11T02:05:37.633Z,25.62
2022-08-11T02:11:07.255Z,25.74
2022-08-11T02:16:32.223Z,25.85
2022-08-11T02:22:20.054Z,25.86
2022-08-11T02:27:25.749Z,25.69
2022-08-11T02:32:56.730Z,25.90
2022-08-11T02:38:12.527Z,25.68
2022-08-11T02:43:52.949Z,25.76
2022-08-11T02:49:18.615Z,25.76
2022-08-11T02:54:24.591Z,26.03
2022-08-11T02:59:52.793Z,26.14
2022-08-11T03:05:12.154Z,26.23
2022-08-11T03:10:19.354Z,26.26
2022-08-11T03:15:51.926Z,26.25
2022-08-11T03:21:02.584Z,26.04
2022-08-11T03:26:07.232Z,25.88
2022-08-11T03:31:19.319Z,26.04
2022-08-11T03:37:14.911Z,25.99
2022-08-11T03:42:16.200Z,25.82
2022-08-11T03:47:32.467Z,25.90
2022-08-11T03:52:47.959Z,25.93
2022-08-11T03:58:08.337Z,25.71
2022-08-11T04:03:36.993Z,25.59
2022-08-11T04:08:50.392Z,25.51
2022-08-11T04:14:39.002Z,25.61
2022-08-11T04:19:57.562Z,25.66
2022-08-11T04:25:17.577Z,25.47
2022-08-11T04:30:26.818Z,25.55
2022-08-11T04:35:51.198Z,25.70
2022-08-11T04:40:43.449Z,25.87
2022-08-11T04:45:41.007Z,25.90
2022-08-11T04:51:03.242Z,25.78
2022-08-11T04:56:37.661Z,25.73
2022-08-11T05:01:42.368Z,26.00
2022-08-11T05:06:58.067Z,26.01
2022-08-11T05:12:21.444Z,25.53
2022-08-11T05:17:42.551Z,25.61
2022-08-11T05:22:55.731Z,25.56
2022-08-11T05:28:21.018Z,25.53
2022-08-11T05:33:43.763Z,25.61
2022-08-11T05:38:56.521Z,25.61
2022-08-11T05:44:28.116Z,25.63
2022-08-11T05:50:18.708Z,25.69
2022-08-11T05:56:19.896Z,25.61
2022-08-11T06:01:16.599Z,25.64
2022-08-11T06:06:13.589Z,25.92
2022-08-11T06:11:06.938Z,25.77
2022-08-11T06:16:06.257Z,25.68
2022-08-11T06:21:00.758Z,25.61
2022-08-11T06:25:56.268Z,25.55
2022-08-11T06:30:50.471Z,25.28
2022-08-11T06:36:03.958Z,25.66
2022-08-11T06:41:23.699Z,25.84
2022-08-11T06:46:28.239Z,26.24
2022-08-11T06:51:22.645Z,26.33
2022-08-11T06:56:41.525Z,26.51
2022-08-11T07:02:00.143Z,26.42
2022-08-11T07:07:46.804Z,26.40
2022-08-11T07:13:11.641Z,26.57
2022-08-11T07:18:46.547Z,26.66
2022-08-11T07:23:58.109Z,26.78
2022-08-11T07:28:59.044Z,26.74
2022-08-11T07:34:07.888Z,26.74
2022-08-11T07:39:04.471Z,26.78
2022-08-11T07:44:08.859Z,26.74
2022-08-11T07:49:22.645Z,26.76
2022-08-11T07:54:17.529Z,26.82
2022-08-11T07:59:59.928Z,27.05
2022-08-11T08:05:01.077Z,27.04
2022-08-11T08:10:31.315Z,27.14
2022-08-11T08:15:43.323Z,27.04
2022-08-11T08:20:40.350Z,27.17
2022-08-11T08:25:54.709Z,27.21
2022-08-11T08:30:52.078Z,27.24
2022-08-11T08:35:54.369Z,27.12
2022-08-11T08:40:56.219Z,27.17
2022-08-11T08:45:49.794Z,27.23
2022-08-11T08:51:11.283Z,27.41
2022-08-11T08:56:09.552Z,27.31
2022-08-11T09:01:04.272Z,27.53
2022-08-11T09:05:58.816Z,27.44
2022-08-11T09:11:13.941Z,27.43
2022-08-11T09:16:12.276Z,27.51
2022-08-11T09:21:06.773Z,27.52
2022-08-11T09:26:20.565Z,27.52
2022-08-11T09:31:14.255Z,27.50
2022-08-11T09:36:27.285Z,27.51
2022-08-11T09:41:21.360Z,27.54
2022-08-11T09:46:27.093Z,27.54
2022-08-11T09:51:23.223Z,27.48
2022-08-11T09:56:38.137Z,27.47
2022-08-11T10:01:57.177Z,27.61
2022-08-11T10:07:04.454Z,27.61
2022-08-11T10:12:03.179Z,27.48
2022-08-11T10:16:57.599Z,27.45
2022-08-11T10:22:14.804Z,27.65
2022-08-11T10:27:09.628Z,27.45
2022-08-11T10:32:30.164Z,27.67
2022-08-11T10:38:08.492Z,27.68
2022-08-11T10:42:58.341Z,27.68
2022-08-11T10:47:54.863Z,27.69
2022-08-11T10:53:08.668Z,27.69
2022-08-11T10:58:20.057Z,27.65
2022-08-11T11:03:22.842Z,27.69
2022-08-11T11:08:41.364Z,27.70
2022-08-11T11:13:57.326Z,27.69
2022-08-11T11:19:00.974Z,27.56
2022-08-11T11:24:13.237Z,27.69
2022-08-11T11:29:30.664Z,27.63
2022-08-11T11:34:54.102Z,27.68
2022-08-11T11:40:06.445Z,27.70
2022-08-11T11:45:01.565Z,27.65
2022-08-11T11:50:14.425Z,27.74
2022-08-11T11:55:48.374Z,27.71
2022-08-11T12:01:16.673Z,27.66
2022-08-11T12:06:14.571Z,27.70
2022-08-11T12:11:31.077Z,27.71
2022-08-11T12:16:34.337Z,27.61
2022-08-11T12:21:35.337Z,27.79
2022-08-11T12:27:16.149Z,27.77
2022-08-11T12:32:10.402Z,27.73
2022-08-11T12:37:13.886Z,27.74
2022-08-11T12:42:45.891Z,27.79
2022-08-11T12:48:59.827Z,27.78
2022-08-11T12:53:59.302Z,27.67
2022-08-11T12:58:54.177Z,27.68
2022-08-11T13:04:25.300Z,27.82
2022-08-11T13:09:19.645Z,27.79
2022-08-11T13:14:15.298Z,27.85
2022-08-11T13:19:10.492Z,27.87
2022-08-11T13:24:05.716Z,27.90
2022-08-11T13:28:59.640Z,27.66
2022-08-11T13:34:05.019Z,27.93
2022-08-11T13:38:59.688Z,27.85
2022-08-11T13:43:53.656Z,27.83
2022-08-11T13:48:47.951Z,27.79
2022-08-11T13:53:43.252Z,27.92
2022-08-11T13:58:40.142Z,27.97
2022-08-11T14:04:30.175Z,27.77
2022-08-11T14:08:47.371Z,27.98
2022-08-11T14:13:48.504Z,27.86
2022-08-11T14:18:47.644Z,27.94
2022-08-11T14:23:47.334Z,27.89
2022-08-11T14:28:44.800Z,28.07
2022-08-11T14:33:59.320Z,27.98
2022-08-11T14:38:54.325Z,28.04
2022-08-11T14:44:14.396Z,28.04
2022-08-11T14:49:08.437Z,27.92
2022-08-11T14:54:20.686Z,28.03
2022-08-11T14:59:14.707Z,28.06
2022-08-11T15:04:34.455Z,28.07
2022-08-11T15:09:22.211Z,28.10
2022-08-11T15:14:15.084Z,28.05
2022-08-11T15:19:09.397Z,27.99
2022-08-11T15:24:20.656Z,28.15
2022-08-11T15:29:34.423Z,28.13
2022-08-11T15:34:48.164Z,28.02
2022-08-11T15:40:30.113Z,28.09
2022-08-11T15:45:43.461Z,28.08
2022-08-11T15:50:41.590Z,28.23
2022-08-11T15:55:35.884Z,28.22
2022-08-11T16:00:49.394Z,28.24
2022-08-11T16:06:00.078Z,28.13
2022-08-11T16:10:58.121Z,28.12
2022-08-11T16:16:17.377Z,28.36
2022-08-11T16:21:33.570Z,28.46
2022-08-11T16:27:07.803Z,28.45
2022-08-11T16:32:06.497Z,28.47
2022-08-11T16:37:18.489Z,28.48
2022-08-11T16:43:08.595Z,28.54
2022-08-11T16:48:02.083Z,28.38
2022-08-11T16:52:57.299Z,28.50
2022-08-11T16:58:08.467Z,28.44
2022-08-11T17:03:22.840Z,28.40
2022-08-11T17:08:36.778Z,28.54
2022-08-11T17:14:07.129Z,28.53
2022-08-11T17:20:43.226Z,28.46
2022-08-11T17:24:40.878Z,28.59
2022-08-11T17:29:54.548Z,28.48
2022-08-11T17:35:09.848Z,28.52
2022-08-11T17:40:08.283Z,28.62
2022-08-11T17:45:22.907Z,28.61
2022-08-11T17:50:18.388Z,28.60
2022-08-11T17:55:51.735Z,28.59
2022-08-11T18:00:44.160Z,28.64
2022-08-11T18:05:44.023Z,28.60
2022-08-11T18:10:57.327Z,28.60
2022-08-11T18:16:10.147Z,28.49
2022-08-11T18:21:23.924Z,28.60
2022-08-11T18:26:39.553Z,28.65
2022-08-11T18:31:55.744Z,28.70
2022-08-11T18:37:19.504Z,28.54
2022-08-11T18:42:35.091Z,28.61
2022-08-11T18:47:48.883Z,28.65
2022-08-11T18:53:07.710Z,28.60
2022-08-11T18:58:23.837Z,28.42
2022-08-11T19:03:43.213Z,28.66
2022-08-11T19:09:06.031Z,28.69
2022-08-11T19:14:20.089Z,28.74
2022-08-11T19:19:33.403Z,28.70
2022-08-11T19:24:46.229Z,28.58
2022-08-11T19:30:07.888Z,28.70
2022-08-11T19:35:27.483Z,28.61
2022-08-11T19:40:39.581Z,28.58
2022-08-11T19:45:52.575Z,28.66
2022-08-11T19:51:05.043Z,28.57
2022-08-11T19:56:16.927Z,28.54
2022-08-11T20:01:28.552Z,28.56
2022-08-11T20:06:40.662Z,28.61
2022-08-11T20:11:56.463Z,28.50
2022-08-11T20:17:11.092Z,28.47
2022-08-11T20:22:23.705Z,28.54
2022-08-11T20:27:37.208Z,28.50
2022-08-11T20:32:49.783Z,28.56
2022-08-11T20:38:03.510Z,28.38
2022-08-11T20:44:06.983Z,28.53
2022-08-11T20:48:50.714Z,28.44
2022-08-11T20:54:05.375Z,28.36
2022-08-11T20:59:21.513Z,28.24
2022-08-11T21:04:35.132Z,28.27
2022-08-11T21:09:58.106Z,28.21
2022-08-11T21:15:14.133Z,27.99
2022-08-11T21:20:47.079Z,27.52
2022-08-11T21:26:07.607Z,27.60
2022-08-11T21:31:19.992Z,27.31
2022-08-11T21:36:33.208Z,26.70
2022-08-11T21:41:48.995Z,27.13
2022-08-11T21:47:01.302Z,27.21
2022-08-11T21:52:12.000Z,27.18
2022-08-11T21:57:24.476Z,27.20
2022-08-11T22:02:37.860Z,27.17
2022-08-11T22:07:50.955Z,27.05
2022-08-11T22:13:03.060Z,27.02
2022-08-11T22:18:14.525Z,27.08
2022-08-11T22:23:35.958Z,26.99
2022-08-11T22:28:49.332Z,27.09
2022-08-11T22:34:02.876Z,27.07
2022-08-11T22:39:17.745Z,27.07
2022-08-11T22:44:29.354Z,26.85
2022-08-11T22:49:57.571Z,27.09
2022-08-11T22:55:12.800Z,27.36
2022-08-11T23:00:30.275Z,27.26
2022-08-11T23:05:44.285Z,27.66
2022-08-11T23:11:01.805Z,27.77
2022-08-11T23:16:19.458Z,27.83
2022-08-11T23:21:40.200Z,27.79
2022-08-11T23:27:00.835Z,27.94
2022-08-11T23:32:25.671Z,27.81
2022-08-11T23:37:42.483Z,28.00
2022-08-11T23:42:59.736Z,28.09
2022-08-11T23:48:16.936Z,28.16
2022-08-11T23:53:33.180Z,28.08
2022-08-11T23:58:50.515Z,28.08
